Rechercher aéroport 
image banner adimage banner adimage banner ad
image banner ad

L73 - Poso-Kern County

Situé à Famoso, United States

ICAO - L73, IATA -

Données fournies par Airmate  

Information générale

Coordonnées: N35°35'47" W119°7'42"
Élévation : 635 feet MSL.
Variation magnétique : 15° East
Voir autres Aéroports à California

Données opérationnelles

Special qualification required
Heure actuelle UTC:
Heure actuelle locale:
Météo à : KBFL - Meadows Field ( 19 km )
METAR: KBFL 020554Z 36010KT 10SM CLR 31/M03 A2999 RMK AO2 SLP147 T03111033 10411 20306 51026
TAF: KBFL 020520Z 0206/0306 36005KT P6SM SKC FM021900 31013KT P6SM SKC
Voir NOTAMs / SUP AIP / TFR affectant cet aéroport [VIEW]
Fréquences de communication: [VIEW]

Pistes:

Identifiant RWYQFULongueur (ft)Largeur (ft)SurfaceLDA (ft)
16300060ASPH
34300060ASPH

Coordonnées de l'aéroport

Adresse: Famoso United States

Vue satellite de L73